Time,TemperatureF,DewpointF,PressureIn,WindDirection,WindDirectionDegrees,WindSpeedMPH,WindSpeedGustMPH,Humidity,HourlyPrecipIn,Conditions,Clouds,dailyrainin,SoftwareType,DateUTC
2013-11-05 00:42:00,35.0,17.0,23.24,South,182,0.0,0.0,47,-99.99,,,0.00,,2013-11-05 07:42:00,
2013-11-05 01:22:00,32.0,17.0,23.24,South,182,0.0,0.0,54,-99.99,,,0.00,,2013-11-05 08:22:00,
2013-11-05 01:31:00,32.0,17.0,23.24,South,182,0.0,0.0,54,-99.99,,,0.00,,2013-11-05 08:31:00,
2013-11-05 02:11:00,31.0,17.0,23.26,South,187,0.0,0.0,56,-99.99,,,0.00,,2013-11-05 09:11:00,
2013-11-05 02:43:00,29.0,16.0,23.25,South,186,0.0,0.0,59,-99.99,,,0.00,,2013-11-05 09:43:00,
2013-11-05 03:23:00,28.0,17.0,23.26,SW,231,0.0,0.0,64,-99.99,,,0.00,,2013-11-05 10:23:00,
2013-11-05 04:12:00,28.0,19.0,23.27,SW,235,0.0,0.0,67,-99.99,,,0.00,,2013-11-05 11:12:00,
2013-11-05 04:22:00,28.0,19.0,23.27,SW,235,0.0,0.0,66,-99.99,,,0.00,,2013-11-05 11:22:00,
2013-11-05 04:42:00,29.0,19.0,23.28,South,180,0.0,0.0,65,-99.99,,,0.00,,2013-11-05 11:42:00,
2013-11-05 05:12:00,29.0,19.0,23.29,South,181,0.0,0.0,66,-99.99,,,0.00,,2013-11-05 12:12:00,
2013-11-05 05:42:00,29.0,18.0,23.29,South,181,0.0,0.0,64,-99.99,,,0.00,,2013-11-05 12:42:00,
2013-11-05 06:21:00,28.0,18.0,23.30,South,190,0.0,0.0,64,-99.99,,,0.00,,2013-11-05 13:21:00,
2013-11-05 06:42:00,27.0,17.0,23.31,South,190,0.0,0.0,65,-99.99,,,0.00,,2013-11-05 13:42:00,
2013-11-05 07:11:00,26.0,17.0,23.32,South,190,0.0,0.0,69,-99.99,,,0.00,,2013-11-05 14:11:00,
2013-11-05 07:22:00,26.0,17.0,23.32,South,190,0.0,0.0,69,-99.99,,,0.00,,2013-11-05 14:22:00,
2013-11-05 07:42:00,27.0,18.0,23.33,South,190,0.0,0.0,69,-99.99,,,0.00,,2013-11-05 14:42:00,
2013-11-05 08:43:00,32.0,20.0,23.35,South,191,0.0,0.0,63,-99.99,,,0.00,,2013-11-05 15:43:00,
2013-11-05 09:13:00,34.0,21.0,23.37,West,275,0.0,4.0,60,-99.99,,,0.00,,2013-11-05 16:13:00,
2013-11-05 09:23:00,34.0,21.0,23.37,SSW,208,0.0,4.0,58,-99.99,,,0.00,,2013-11-05 16:23:00,
2013-11-05 09:43:00,37.0,20.0,23.38,ENE,64,0.0,4.0,51,-99.99,,,0.00,,2013-11-05 16:43:00,
2013-11-05 10:22:00,37.0,17.0,23.40,ENE,59,7.0,14.0,44,-99.99,,,0.00,,2013-11-05 17:22:00,
2013-11-05 11:42:00,39.0,14.0,23.44,NE,40,2.0,11.0,35,-99.99,,,0.00,,2013-11-05 18:42:00,
2013-11-05 11:52:00,39.0,14.0,23.45,ESE,103,1.0,12.0,36,-99.99,,,0.00,,2013-11-05 18:52:00,
2013-11-05 12:22:00,41.0,14.0,23.45,NE,56,3.0,14.0,33,-99.99,,,0.00,,2013-11-05 19:22:00,
2013-11-05 12:42:00,41.0,13.0,23.46,NE,53,2.0,13.0,32,-99.99,,,0.00,,2013-11-05 19:42:00,
2013-11-05 13:22:00,42.0,13.0,23.47,NE,56,7.0,11.0,30,-99.99,,,0.00,,2013-11-05 20:22:00,
2013-11-05 13:42:00,43.0,11.0,23.47,NE,56,4.0,12.0,27,-99.99,,,0.00,,2013-11-05 20:42:00,
2013-11-05 14:21:00,43.0,11.0,23.47,ENE,68,4.0,15.0,27,-99.99,,,0.00,,2013-11-05 21:21:00,
2013-11-05 14:44:00,43.0,12.0,23.48,NNE,33,0.0,13.0,27,-99.99,,,0.00,,2013-11-05 21:44:00,
2013-11-05 15:23:00,43.0,11.0,23.49,NE,53,5.0,11.0,26,-99.99,,,0.00,,2013-11-05 22:23:00,
2013-11-05 15:43:00,43.0,11.0,23.48,ESE,103,0.0,12.0,26,-99.99,,,0.00,,2013-11-05 22:43:00,
2013-11-05 16:22:00,43.0,10.0,23.49,ENE,65,1.0,15.0,26,-99.99,,,0.00,,2013-11-05 23:22:00,
2013-11-05 16:42:00,42.0,10.0,23.49,ENE,68,0.0,8.0,26,-99.99,,,0.00,,2013-11-05 23:42:00,
2013-11-05 17:42:00,39.0,8.0,23.46,ESE,115,0.0,0.0,27,-99.99,,,0.00,,2013-11-06 00:42:00,
2013-11-05 18:21:00,35.0,5.0,23.45,NE,54,0.0,1.0,27,-99.99,,,0.00,,2013-11-06 01:21:00,
2013-11-05 18:42:00,35.0,5.0,23.46,ENE,65,0.0,0.0,28,-99.99,,,0.00,,2013-11-06 01:42:00,
2013-11-05 19:12:00,33.0,6.0,23.46,NE,52,0.0,0.0,32,-99.99,,,0.00,,2013-11-06 02:12:00,
2013-11-05 19:23:00,30.0,7.0,23.47,NE,52,0.0,0.0,36,-99.99,,,0.00,,2013-11-06 02:23:00,
2013-11-05 19:42:00,28.0,6.0,23.46,NE,52,0.0,0.0,39,-99.99,,,0.00,,2013-11-06 02:42:00,
2013-11-05 20:22:00,26.0,7.0,23.47,NE,52,0.0,0.0,45,-99.99,,,0.00,,2013-11-06 03:22:00,
2013-11-05 20:43:00,25.0,6.0,23.48,NE,52,0.0,0.0,44,-99.99,,,0.00,,2013-11-06 03:43:00,
2013-11-05 21:23:00,23.0,5.0,23.49,NE,52,0.0,0.0,46,-99.99,,,0.00,,2013-11-06 04:23:00,
2013-11-05 21:43:00,22.0,6.0,23.49,NE,52,0.0,0.0,49,-99.99,,,0.00,,2013-11-06 04:43:00,
2013-11-05 22:44:00,23.0,4.0,23.49,NW,315,0.0,0.0,43,-99.99,,,0.00,,2013-11-06 05:44:00,
2013-11-05 23:13:00,23.0,5.0,23.50,WNW,290,0.0,0.0,46,-99.99,,,0.00,,2013-11-06 06:13:00,
2013-11-05 23:42:00,22.0,4.0,23.50,WNW,290,0.0,0.0,46,-99.99,,,0.00,,2013-11-06 06:42:00,